sensor_id;sensor_type;location;lat;lon;timestamp;P1;durP1;ratioP1;P2;durP2;ratioP2
72864;SDS011;61000;48.120;11.548;2024-02-26T00:01:55;6.00;;;4.53;;
72864;SDS011;61000;48.120;11.548;2024-02-26T00:04:24;4.45;;;4.03;;
72864;SDS011;61000;48.120;11.548;2024-02-26T00:06:50;5.05;;;4.25;;
72864;SDS011;61000;48.120;11.548;2024-02-26T00:09:19;4.50;;;4.10;;
72864;SDS011;61000;48.120;11.548;2024-02-26T00:11:46;5.03;;;4.47;;
72864;SDS011;61000;48.120;11.548;2024-02-26T00:14:13;4.78;;;4.35;;
72864;SDS011;61000;48.120;11.548;2024-02-26T00:16:40;5.60;;;3.90;;
72864;SDS011;61000;48.120;11.548;2024-02-26T00:19:07;5.30;;;4.25;;
72864;SDS011;61000;48.120;11.548;2024-02-26T00:21:39;5.40;;;4.38;;
72864;SDS011;61000;48.120;11.548;2024-02-26T00:24:06;4.40;;;3.92;;
72864;SDS011;61000;48.120;11.548;2024-02-26T00:26:33;4.20;;;3.63;;
72864;SDS011;61000;48.120;11.548;2024-02-26T00:29:00;4.85;;;4.18;;
72864;SDS011;61000;48.120;11.548;2024-02-26T00:31:27;5.25;;;4.00;;
72864;SDS011;61000;48.120;11.548;2024-02-26T00:33:54;5.63;;;3.40;;
72864;SDS011;61000;48.120;11.548;2024-02-26T00:36:21;3.92;;;3.53;;
72864;SDS011;61000;48.120;11.548;2024-02-26T00:38:50;4.05;;;3.65;;
72864;SDS011;61000;48.120;11.548;2024-02-26T00:41:17;6.10;;;4.15;;
72864;SDS011;61000;48.120;11.548;2024-02-26T00:43:44;4.40;;;4.00;;
72864;SDS011;61000;48.120;11.548;2024-02-26T00:46:11;7.55;;;4.28;;
72864;SDS011;61000;48.120;11.548;2024-02-26T00:48:38;5.13;;;4.20;;
72864;SDS011;61000;48.120;11.548;2024-02-26T00:51:05;4.47;;;3.83;;
72864;SDS011;61000;48.120;11.548;2024-02-26T00:53:32;3.97;;;3.60;;
72864;SDS011;61000;48.120;11.548;2024-02-26T00:56:01;4.80;;;3.70;;
72864;SDS011;61000;48.120;11.548;2024-02-26T00:58:28;4.38;;;3.75;;
72864;SDS011;61000;48.120;11.548;2024-02-26T01:00:54;4.15;;;3.80;;
72864;SDS011;61000;48.120;11.548;2024-02-26T01:03:21;4.38;;;3.95;;
72864;SDS011;61000;48.120;11.548;2024-02-26T01:05:48;4.57;;;3.95;;
72864;SDS011;61000;48.120;11.548;2024-02-26T01:08:15;5.32;;;3.40;;
72864;SDS011;61000;48.120;11.548;2024-02-26T01:10:42;4.85;;;4.32;;
72864;SDS011;61000;48.120;11.548;2024-02-26T01:13:10;4.50;;;3.45;;
72864;SDS011;61000;48.120;11.548;2024-02-26T01:15:37;3.47;;;3.13;;
72864;SDS011;61000;48.120;11.548;2024-02-26T01:18:04;4.50;;;4.10;;
72864;SDS011;61000;48.120;11.548;2024-02-26T01:20:31;5.72;;;4.00;;
72864;SDS011;61000;48.120;11.548;2024-02-26T01:22:58;4.20;;;3.60;;
72864;SDS011;61000;48.120;11.548;2024-02-26T01:25:24;5.28;;;3.83;;
72864;SDS011;61000;48.120;11.548;2024-02-26T01:27:52;6.90;;;4.20;;
72864;SDS011;61000;48.120;11.548;2024-02-26T01:30:20;4.47;;;3.80;;
72864;SDS011;61000;48.120;11.548;2024-02-26T01:32:47;6.05;;;4.68;;
72864;SDS011;61000;48.120;11.548;2024-02-26T01:35:14;12.30;;;7.80;;
72864;SDS011;61000;48.120;11.548;2024-02-26T01:37:41;7.18;;;5.00;;
72864;SDS011;61000;48.120;11.548;2024-02-26T01:40:08;5.75;;;4.65;;
72864;SDS011;61000;48.120;11.548;2024-02-26T01:42:38;9.82;;;5.75;;
72864;SDS011;61000;48.120;11.548;2024-02-26T01:45:06;5.55;;;4.93;;
72864;SDS011;61000;48.120;11.548;2024-02-26T01:47:41;4.95;;;4.55;;
72864;SDS011;61000;48.120;11.548;2024-02-26T01:50:08;4.97;;;4.50;;
72864;SDS011;61000;48.120;11.548;2024-02-26T01:52:35;6.20;;;4.93;;
72864;SDS011;61000;48.120;11.548;2024-02-26T01:55:02;4.78;;;4.20;;
72864;SDS011;61000;48.120;11.548;2024-02-26T01:57:30;4.88;;;3.78;;
72864;SDS011;61000;48.120;11.548;2024-02-26T01:59:57;4.88;;;3.97;;
72864;SDS011;61000;48.120;11.548;2024-02-26T02:02:23;4.00;;;3.60;;
72864;SDS011;61000;48.120;11.548;2024-02-26T02:04:52;4.32;;;3.92;;
72864;SDS011;61000;48.120;11.548;2024-02-26T02:07:19;4.45;;;3.88;;
72864;SDS011;61000;48.120;11.548;2024-02-26T02:09:47;6.93;;;4.28;;
72864;SDS011;61000;48.120;11.548;2024-02-26T02:12:14;6.70;;;4.18;;
72864;SDS011;61000;48.120;11.548;2024-02-26T02:14:41;5.30;;;3.78;;
72864;SDS011;61000;48.120;11.548;2024-02-26T02:17:08;4.35;;;3.95;;
72864;SDS011;61000;48.120;11.548;2024-02-26T02:19:35;4.32;;;3.92;;
72864;SDS011;61000;48.120;11.548;2024-02-26T02:22:04;5.13;;;3.90;;
72864;SDS011;61000;48.120;11.548;2024-02-26T02:24:33;4.47;;;3.80;;
72864;SDS011;61000;48.120;11.548;2024-02-26T02:27:00;3.78;;;3.28;;
72864;SDS011;61000;48.120;11.548;2024-02-26T02:29:28;4.03;;;3.55;;
72864;SDS011;61000;48.120;11.548;2024-02-26T02:31:55;4.50;;;3.90;;
72864;SDS011;61000;48.120;11.548;2024-02-26T02:34:22;5.28;;;4.25;;
72864;SDS011;61000;48.120;11.548;2024-02-26T02:36:50;3.92;;;3.63;;
72864;SDS011;61000;48.120;11.548;2024-02-26T02:39:20;5.18;;;3.42;;
72864;SDS011;61000;48.120;11.548;2024-02-26T02:41:47;4.57;;;3.30;;
72864;SDS011;61000;48.120;11.548;2024-02-26T02:44:14;6.60;;;3.78;;
72864;SDS011;61000;48.120;11.548;2024-02-26T02:46:41;4.95;;;3.60;;
72864;SDS011;61000;48.120;11.548;2024-02-26T02:49:08;4.03;;;3.40;;
72864;SDS011;61000;48.120;11.548;2024-02-26T02:51:35;4.20;;;3.80;;
72864;SDS011;61000;48.120;11.548;2024-02-26T02:54:02;4.03;;;3.10;;
72864;SDS011;61000;48.120;11.548;2024-02-26T02:56:31;4.40;;;3.30;;
72864;SDS011;61000;48.120;11.548;2024-02-26T02:58:57;5.15;;;3.53;;
72864;SDS011;61000;48.120;11.548;2024-02-26T03:01:24;4.13;;;3.50;;
72864;SDS011;61000;48.120;11.548;2024-02-26T03:03:51;4.15;;;3.65;;
72864;SDS011;61000;48.120;11.548;2024-02-26T03:06:18;3.60;;;3.30;;
72864;SDS011;61000;48.120;11.548;2024-02-26T03:08:46;5.13;;;3.92;;
72864;SDS011;61000;48.120;11.548;2024-02-26T03:11:13;4.43;;;3.60;;
72864;SDS011;61000;48.120;11.548;2024-02-26T03:13:41;4.22;;;3.72;;
72864;SDS011;61000;48.120;11.548;2024-02-26T03:16:09;4.32;;;3.80;;
72864;SDS011;61000;48.120;11.548;2024-02-26T03:18:38;3.75;;;3.45;;
72864;SDS011;61000;48.120;11.548;2024-02-26T03:21:05;4.38;;;3.38;;
72864;SDS011;61000;48.120;11.548;2024-02-26T03:23:32;5.47;;;3.60;;
72864;SDS011;61000;48.120;11.548;2024-02-26T03:26:01;4.13;;;3.72;;
72864;SDS011;61000;48.120;11.548;2024-02-26T03:28:28;3.85;;;3.10;;
72864;SDS011;61000;48.120;11.548;2024-02-26T03:30:57;3.20;;;2.90;;
72864;SDS011;61000;48.120;11.548;2024-02-26T03:33:24;4.60;;;3.08;;
72864;SDS011;61000;48.120;11.548;2024-02-26T03:35:51;3.53;;;3.22;;
72864;SDS011;61000;48.120;11.548;2024-02-26T03:38:18;3.78;;;3.47;;
72864;SDS011;61000;48.120;11.548;2024-02-26T03:40:45;3.67;;;3.38;;
72864;SDS011;61000;48.120;11.548;2024-02-26T03:43:12;4.07;;;3.25;;
72864;SDS011;61000;48.120;11.548;2024-02-26T03:45:39;3.13;;;2.85;;
72864;SDS011;61000;48.120;11.548;2024-02-26T03:48:07;3.78;;;3.08;;
72864;SDS011;61000;48.120;11.548;2024-02-26T03:50:34;3.40;;;3.10;;
72864;SDS011;61000;48.120;11.548;2024-02-26T03:53:01;3.75;;;3.45;;
72864;SDS011;61000;48.120;11.548;2024-02-26T03:55:28;3.90;;;3.60;;
72864;SDS011;61000;48.120;11.548;2024-02-26T03:57:54;4.20;;;3.45;;
72864;SDS011;61000;48.120;11.548;2024-02-26T04:00:21;5.80;;;4.03;;
72864;SDS011;61000;48.120;11.548;2024-02-26T04:02:48;4.90;;;3.50;;
72864;SDS011;61000;48.120;11.548;2024-02-26T04:05:17;3.97;;;3.22;;
72864;SDS011;61000;48.120;11.548;2024-02-26T04:07:44;6.55;;;3.53;;
72864;SDS011;61000;48.120;11.548;2024-02-26T04:10:11;5.60;;;3.28;;
72864;SDS011;61000;48.120;11.548;2024-02-26T04:12:38;3.72;;;3.17;;
72864;SDS011;61000;48.120;11.548;2024-02-26T04:15:06;2.97;;;2.78;;
72864;SDS011;61000;48.120;11.548;2024-02-26T04:17:34;3.92;;;3.40;;
72864;SDS011;61000;48.120;11.548;2024-02-26T04:20:02;2.83;;;2.63;;
72864;SDS011;61000;48.120;11.548;2024-02-26T04:22:31;3.20;;;2.90;;
72864;SDS011;61000;48.120;11.548;2024-02-26T04:24:58;4.13;;;2.70;;
72864;SDS011;61000;48.120;11.548;2024-02-26T04:27:25;3.47;;;2.97;;
72864;SDS011;61000;48.120;11.548;2024-02-26T04:29:52;3.65;;;3.35;;
72864;SDS011;61000;48.120;11.548;2024-02-26T04:32:19;4.43;;;3.08;;
72864;SDS011;61000;48.120;11.548;2024-02-26T04:34:46;3.58;;;2.70;;
72864;SDS011;61000;48.120;11.548;2024-02-26T04:37:13;3.83;;;2.90;;
72864;SDS011;61000;48.120;11.548;2024-02-26T04:39:41;3.22;;;2.92;;
72864;SDS011;61000;48.120;11.548;2024-02-26T04:42:08;3.35;;;3.05;;
72864;SDS011;61000;48.120;11.548;2024-02-26T04:44:35;3.15;;;2.85;;
72864;SDS011;61000;48.120;11.548;2024-02-26T04:47:02;3.53;;;2.97;;
72864;SDS011;61000;48.120;11.548;2024-02-26T04:49:29;5.05;;;2.80;;
72864;SDS011;61000;48.120;11.548;2024-02-26T04:51:55;5.25;;;4.38;;
72864;SDS011;61000;48.120;11.548;2024-02-26T04:54:22;4.03;;;2.55;;
72864;SDS011;61000;48.120;11.548;2024-02-26T04:56:50;3.60;;;2.63;;
72864;SDS011;61000;48.120;11.548;2024-02-26T04:59:17;3.63;;;2.90;;
72864;SDS011;61000;48.120;11.548;2024-02-26T05:01:44;2.75;;;2.53;;
72864;SDS011;61000;48.120;11.548;2024-02-26T05:04:11;4.10;;;3.00;;
72864;SDS011;61000;48.120;11.548;2024-02-26T05:06:38;3.13;;;2.85;;
72864;SDS011;61000;48.120;11.548;2024-02-26T05:09:05;3.15;;;2.75;;
72864;SDS011;61000;48.120;11.548;2024-02-26T05:11:32;3.47;;;2.90;;
72864;SDS011;61000;48.120;11.548;2024-02-26T05:14:01;3.00;;;2.80;;
72864;SDS011;61000;48.120;11.548;2024-02-26T05:16:27;2.50;;;2.30;;
72864;SDS011;61000;48.120;11.548;2024-02-26T05:18:56;3.20;;;2.90;;
72864;SDS011;61000;48.120;11.548;2024-02-26T05:21:23;2.95;;;2.75;;
72864;SDS011;61000;48.120;11.548;2024-02-26T05:23:50;3.83;;;2.83;;
72864;SDS011;61000;48.120;11.548;2024-02-26T05:26:20;5.03;;;2.70;;
72864;SDS011;61000;48.120;11.548;2024-02-26T05:28:47;3.03;;;2.30;;
72864;SDS011;61000;48.120;11.548;2024-02-26T05:31:16;5.30;;;3.00;;
72864;SDS011;61000;48.120;11.548;2024-02-26T05:33:44;4.43;;;2.35;;
72864;SDS011;61000;48.120;11.548;2024-02-26T05:36:17;3.40;;;2.45;;
72864;SDS011;61000;48.120;11.548;2024-02-26T05:38:44;3.22;;;2.88;;
72864;SDS011;61000;48.120;11.548;2024-02-26T05:41:12;3.22;;;2.92;;
72864;SDS011;61000;48.120;11.548;2024-02-26T05:43:39;2.67;;;2.47;;
72864;SDS011;61000;48.120;11.548;2024-02-26T05:46:06;6.38;;;2.95;;
72864;SDS011;61000;48.120;11.548;2024-02-26T05:48:34;2.72;;;2.50;;
72864;SDS011;61000;48.120;11.548;2024-02-26T05:51:01;3.58;;;2.55;;
72864;SDS011;61000;48.120;11.548;2024-02-26T05:53:28;5.97;;;2.70;;
72864;SDS011;61000;48.120;11.548;2024-02-26T05:55:55;2.90;;;2.70;;
72864;SDS011;61000;48.120;11.548;2024-02-26T05:58:21;3.75;;;3.22;;
72864;SDS011;61000;48.120;11.548;2024-02-26T06:00:48;4.47;;;3.97;;
72864;SDS011;61000;48.120;11.548;2024-02-26T06:03:18;4.22;;;2.92;;
72864;SDS011;61000;48.120;11.548;2024-02-26T06:05:47;3.75;;;2.83;;
72864;SDS011;61000;48.120;11.548;2024-02-26T06:08:13;3.63;;;2.80;;
72864;SDS011;61000;48.120;11.548;2024-02-26T06:10:40;3.30;;;2.45;;
72864;SDS011;61000;48.120;11.548;2024-02-26T06:13:07;3.67;;;2.60;;
72864;SDS011;61000;48.120;11.548;2024-02-26T06:15:34;3.33;;;2.35;;
72864;SDS011;61000;48.120;11.548;2024-02-26T06:18:01;4.00;;;2.95;;
72864;SDS011;61000;48.120;11.548;2024-02-26T06:20:28;2.60;;;2.40;;
72864;SDS011;61000;48.120;11.548;2024-02-26T06:22:56;5.43;;;2.17;;
72864;SDS011;61000;48.120;11.548;2024-02-26T06:25:23;3.38;;;3.03;;
72864;SDS011;61000;48.120;11.548;2024-02-26T06:27:50;2.95;;;2.50;;
72864;SDS011;61000;48.120;11.548;2024-02-26T06:30:17;2.88;;;2.30;;
72864;SDS011;61000;48.120;11.548;2024-02-26T06:32:44;5.22;;;2.40;;
72864;SDS011;61000;48.120;11.548;2024-02-26T06:35:11;3.50;;;2.65;;
72864;SDS011;61000;48.120;11.548;2024-02-26T06:37:38;4.57;;;2.50;;
72864;SDS011;61000;48.120;11.548;2024-02-26T06:40:07;3.30;;;2.30;;
72864;SDS011;61000;48.120;11.548;2024-02-26T06:42:34;4.57;;;2.60;;
72864;SDS011;61000;48.120;11.548;2024-02-26T06:45:02;3.00;;;2.70;;
72864;SDS011;61000;48.120;11.548;2024-02-26T06:47:30;4.00;;;2.25;;
72864;SDS011;61000;48.120;11.548;2024-02-26T06:49:57;7.88;;;3.10;;
72864;SDS011;61000;48.120;11.548;2024-02-26T06:52:24;3.78;;;3.00;;
72864;SDS011;61000;48.120;11.548;2024-02-26T06:54:51;6.15;;;3.10;;
72864;SDS011;61000;48.120;11.548;2024-02-26T06:57:20;6.78;;;2.83;;
72864;SDS011;61000;48.120;11.548;2024-02-26T06:59:47;4.00;;;3.35;;
72864;SDS011;61000;48.120;11.548;2024-02-26T07:02:14;4.88;;;3.38;;
72864;SDS011;61000;48.120;11.548;2024-02-26T07:04:41;3.83;;;3.00;;
72864;SDS011;61000;48.120;11.548;2024-02-26T07:07:08;6.00;;;3.53;;
72864;SDS011;61000;48.120;11.548;2024-02-26T07:09:35;10.55;;;3.65;;
72864;SDS011;61000;48.120;11.548;2024-02-26T07:12:03;11.02;;;3.42;;
72864;SDS011;61000;48.120;11.548;2024-02-26T07:14:31;9.43;;;3.63;;
72864;SDS011;61000;48.120;11.548;2024-02-26T07:16:58;5.40;;;3.67;;
72864;SDS011;61000;48.120;11.548;2024-02-26T07:19:25;5.03;;;2.92;;
72864;SDS011;61000;48.120;11.548;2024-02-26T07:21:52;3.83;;;3.00;;
72864;SDS011;61000;48.120;11.548;2024-02-26T07:24:19;6.82;;;2.80;;
72864;SDS011;61000;48.120;11.548;2024-02-26T07:26:46;9.10;;;3.83;;
72864;SDS011;61000;48.120;11.548;2024-02-26T07:29:13;5.28;;;2.92;;
72864;SDS011;61000;48.120;11.548;2024-02-26T07:31:41;4.88;;;3.20;;
72864;SDS011;61000;48.120;11.548;2024-02-26T07:34:08;8.00;;;3.70;;
72864;SDS011;61000;48.120;11.548;2024-02-26T07:36:35;8.27;;;3.05;;
72864;SDS011;61000;48.120;11.548;2024-02-26T07:39:02;4.75;;;2.95;;
72864;SDS011;61000;48.120;11.548;2024-02-26T07:41:29;7.13;;;4.63;;
72864;SDS011;61000;48.120;11.548;2024-02-26T07:43:56;8.38;;;3.10;;
72864;SDS011;61000;48.120;11.548;2024-02-26T07:46:22;4.10;;;2.90;;
72864;SDS011;61000;48.120;11.548;2024-02-26T07:48:51;5.20;;;3.00;;
72864;SDS011;61000;48.120;11.548;2024-02-26T07:51:17;5.05;;;2.92;;
72864;SDS011;61000;48.120;11.548;2024-02-26T07:53:44;6.18;;;3.50;;
72864;SDS011;61000;48.120;11.548;2024-02-26T07:56:12;8.52;;;3.42;;
72864;SDS011;61000;48.120;11.548;2024-02-26T07:58:39;8.77;;;5.63;;
72864;SDS011;61000;48.120;11.548;2024-02-26T08:01:06;7.95;;;3.30;;
72864;SDS011;61000;48.120;11.548;2024-02-26T08:03:36;5.47;;;3.15;;
72864;SDS011;61000;48.120;11.548;2024-02-26T08:06:05;4.85;;;3.47;;
72864;SDS011;61000;48.120;11.548;2024-02-26T08:08:32;8.32;;;3.60;;
72864;SDS011;61000;48.120;11.548;2024-02-26T08:10:59;7.40;;;3.03;;
72864;SDS011;61000;48.120;11.548;2024-02-26T08:13:26;8.48;;;3.53;;
72864;SDS011;61000;48.120;11.548;2024-02-26T08:15:53;11.25;;;3.92;;
72864;SDS011;61000;48.120;11.548;2024-02-26T08:18:20;4.18;;;3.10;;
72864;SDS011;61000;48.120;11.548;2024-02-26T08:20:47;12.82;;;3.58;;
72864;SDS011;61000;48.120;11.548;2024-02-26T08:23:15;9.00;;;3.78;;
72864;SDS011;61000;48.120;11.548;2024-02-26T08:25:42;7.90;;;3.85;;
72864;SDS011;61000;48.120;11.548;2024-02-26T08:28:09;5.65;;;3.67;;
72864;SDS011;61000;48.120;11.548;2024-02-26T08:30:38;14.52;;;4.78;;
72864;SDS011;61000;48.120;11.548;2024-02-26T08:33:05;13.93;;;3.85;;
72864;SDS011;61000;48.120;11.548;2024-02-26T08:35:32;12.65;;;4.78;;
72864;SDS011;61000;48.120;11.548;2024-02-26T08:37:59;10.65;;;4.07;;
72864;SDS011;61000;48.120;11.548;2024-02-26T08:40:27;9.18;;;3.45;;
72864;SDS011;61000;48.120;11.548;2024-02-26T08:42:54;10.65;;;3.40;;
72864;SDS011;61000;48.120;11.548;2024-02-26T08:45:20;9.38;;;3.58;;
72864;SDS011;61000;48.120;11.548;2024-02-26T08:47:47;10.32;;;3.90;;
72864;SDS011;61000;48.120;11.548;2024-02-26T08:50:14;7.63;;;3.08;;
72864;SDS011;61000;48.120;11.548;2024-02-26T08:52:41;4.53;;;3.25;;
72864;SDS011;61000;48.120;11.548;2024-02-26T08:55:09;7.03;;;3.63;;
72864;SDS011;61000;48.120;11.548;2024-02-26T08:57:37;5.45;;;3.08;;
72864;SDS011;61000;48.120;11.548;2024-02-26T09:00:04;6.75;;;3.58;;
72864;SDS011;61000;48.120;11.548;2024-02-26T09:02:32;3.67;;;2.70;;
72864;SDS011;61000;48.120;11.548;2024-02-26T09:04:59;3.40;;;3.10;;
72864;SDS011;61000;48.120;11.548;2024-02-26T09:07:26;9.68;;;2.58;;
72864;SDS011;61000;48.120;11.548;2024-02-26T09:09:52;4.57;;;2.50;;
72864;SDS011;61000;48.120;11.548;2024-02-26T09:12:20;4.10;;;3.00;;
72864;SDS011;61000;48.120;11.548;2024-02-26T09:14:48;9.48;;;3.22;;
72864;SDS011;61000;48.120;11.548;2024-02-26T09:17:15;8.88;;;2.85;;
72864;SDS011;61000;48.120;11.548;2024-02-26T09:19:42;3.60;;;2.58;;
72864;SDS011;61000;48.120;11.548;2024-02-26T09:22:09;2.95;;;2.65;;
72864;SDS011;61000;48.120;11.548;2024-02-26T09:24:36;5.28;;;2.67;;
72864;SDS011;61000;48.120;11.548;2024-02-26T09:27:03;9.30;;;3.10;;
72864;SDS011;61000;48.120;11.548;2024-02-26T09:29:30;8.52;;;3.13;;
72864;SDS011;61000;48.120;11.548;2024-02-26T09:31:59;10.23;;;5.15;;
72864;SDS011;61000;48.120;11.548;2024-02-26T09:34:26;8.75;;;3.20;;
72864;SDS011;61000;48.120;11.548;2024-02-26T09:36:53;12.27;;;3.17;;
72864;SDS011;61000;48.120;11.548;2024-02-26T09:39:20;8.93;;;3.13;;
72864;SDS011;61000;48.120;11.548;2024-02-26T09:41:47;3.28;;;2.97;;
72864;SDS011;61000;48.120;11.548;2024-02-26T09:44:18;10.73;;;3.58;;
72864;SDS011;61000;48.120;11.548;2024-02-26T09:46:46;2.95;;;2.42;;
72864;SDS011;61000;48.120;11.548;2024-02-26T09:49:15;6.50;;;2.95;;
72864;SDS011;61000;48.120;11.548;2024-02-26T09:51:43;6.93;;;2.80;;
72864;SDS011;61000;48.120;11.548;2024-02-26T09:54:10;6.30;;;3.25;;
72864;SDS011;61000;48.120;11.548;2024-02-26T09:56:39;8.80;;;2.83;;
72864;SDS011;61000;48.120;11.548;2024-02-26T09:59:09;6.07;;;3.00;;
72864;SDS011;61000;48.120;11.548;2024-02-26T10:01:39;4.70;;;2.53;;
72864;SDS011;61000;48.120;11.548;2024-02-26T10:04:08;9.98;;;2.55;;
72864;SDS011;61000;48.120;11.548;2024-02-26T10:06:37;3.60;;;2.50;;
72864;SDS011;61000;48.120;11.548;2024-02-26T10:09:04;4.72;;;2.60;;
72864;SDS011;61000;48.120;11.548;2024-02-26T10:11:35;2.72;;;2.42;;
72864;SDS011;61000;48.120;11.548;2024-02-26T10:14:04;6.65;;;2.50;;
72864;SDS011;61000;48.120;11.548;2024-02-26T10:16:30;4.43;;;2.53;;
72864;SDS011;61000;48.120;11.548;2024-02-26T10:18:59;6.43;;;2.50;;
72864;SDS011;61000;48.120;11.548;2024-02-26T10:21:26;6.55;;;2.40;;
72864;SDS011;61000;48.120;11.548;2024-02-26T10:23:54;11.13;;;2.72;;
72864;SDS011;61000;48.120;11.548;2024-02-26T10:26:21;4.55;;;2.60;;
72864;SDS011;61000;48.120;11.548;2024-02-26T10:28:48;5.88;;;2.42;;
72864;SDS011;61000;48.120;11.548;2024-02-26T10:31:15;2.55;;;1.92;;
72864;SDS011;61000;48.120;11.548;2024-02-26T10:33:42;5.90;;;2.65;;
72864;SDS011;61000;48.120;11.548;2024-02-26T10:36:09;8.00;;;2.42;;
72864;SDS011;61000;48.120;11.548;2024-02-26T10:38:37;2.85;;;2.35;;
72864;SDS011;61000;48.120;11.548;2024-02-26T10:41:05;4.50;;;2.70;;
72864;SDS011;61000;48.120;11.548;2024-02-26T10:43:33;5.53;;;2.58;;
72864;SDS011;61000;48.120;11.548;2024-02-26T10:46:00;4.35;;;2.50;;
72864;SDS011;61000;48.120;11.548;2024-02-26T10:48:27;3.30;;;2.38;;
72864;SDS011;61000;48.120;11.548;2024-02-26T10:50:54;4.93;;;2.17;;
72864;SDS011;61000;48.120;11.548;2024-02-26T10:53:22;3.30;;;2.08;;
72864;SDS011;61000;48.120;11.548;2024-02-26T10:55:52;2.55;;;2.00;;
72864;SDS011;61000;48.120;11.548;2024-02-26T10:58:23;3.22;;;1.77;;
72864;SDS011;61000;48.120;11.548;2024-02-26T11:00:51;6.28;;;1.85;;
72864;SDS011;61000;48.120;11.548;2024-02-26T11:03:18;7.28;;;2.78;;
72864;SDS011;61000;48.120;11.548;2024-02-26T11:05:46;4.72;;;1.95;;
72864;SDS011;61000;48.120;11.548;2024-02-26T11:08:14;3.45;;;1.85;;
72864;SDS011;61000;48.120;11.548;2024-02-26T11:10:44;3.17;;;1.80;;
72864;SDS011;61000;48.120;11.548;2024-02-26T11:13:14;5.25;;;2.05;;
72864;SDS011;61000;48.120;11.548;2024-02-26T11:15:45;5.00;;;2.55;;
72864;SDS011;61000;48.120;11.548;2024-02-26T11:18:13;4.43;;;2.40;;
72864;SDS011;61000;48.120;11.548;2024-02-26T11:20:41;2.47;;;2.10;;
72864;SDS011;61000;48.120;11.548;2024-02-26T11:23:09;3.35;;;1.90;;
72864;SDS011;61000;48.120;11.548;2024-02-26T11:25:36;1.58;;;1.42;;
72864;SDS011;61000;48.120;11.548;2024-02-26T11:28:05;4.53;;;1.42;;
72864;SDS011;61000;48.120;11.548;2024-02-26T11:30:36;2.95;;;1.40;;
72864;SDS011;61000;48.120;11.548;2024-02-26T11:33:08;2.17;;;1.50;;
72864;SDS011;61000;48.120;11.548;2024-02-26T11:35:37;2.15;;;1.38;;
72864;SDS011;61000;48.120;11.548;2024-02-26T11:38:04;1.40;;;1.15;;
72864;SDS011;61000;48.120;11.548;2024-02-26T11:40:32;1.60;;;1.35;;
72864;SDS011;61000;48.120;11.548;2024-02-26T11:43:04;1.95;;;1.70;;
72864;SDS011;61000;48.120;11.548;2024-02-26T11:48:23;1.17;;;1.17;;
72864;SDS011;61000;48.120;11.548;2024-02-26T11:50:51;1.52;;;1.17;;
72864;SDS011;61000;48.120;11.548;2024-02-26T11:53:21;3.63;;;1.42;;
72864;SDS011;61000;48.120;11.548;2024-02-26T11:58:39;1.65;;;1.42;;
72864;SDS011;61000;48.120;11.548;2024-02-26T12:04:11;1.58;;;1.40;;
72864;SDS011;61000;48.120;11.548;2024-02-26T12:06:44;2.50;;;1.33;;
72864;SDS011;61000;48.120;11.548;2024-02-26T12:09:13;1.60;;;1.50;;
72864;SDS011;61000;48.120;11.548;2024-02-26T12:11:57;4.65;;;1.42;;
72864;SDS011;61000;48.120;11.548;2024-02-26T12:14:25;2.33;;;1.30;;
72864;SDS011;61000;48.120;11.548;2024-02-26T12:16:52;3.00;;;1.20;;
72864;SDS011;61000;48.120;11.548;2024-02-26T12:19:20;1.13;;;1.00;;
72864;SDS011;61000;48.120;11.548;2024-02-26T12:21:51;1.20;;;1.10;;
72864;SDS011;61000;48.120;11.548;2024-02-26T12:24:18;3.35;;;1.23;;
72864;SDS011;61000;48.120;11.548;2024-02-26T12:26:46;1.73;;;1.50;;
72864;SDS011;61000;48.120;11.548;2024-02-26T12:29:13;2.30;;;1.92;;
72864;SDS011;61000;48.120;11.548;2024-02-26T12:31:40;1.20;;;1.10;;
72864;SDS011;61000;48.120;11.548;2024-02-26T12:34:07;1.35;;;1.10;;
72864;SDS011;61000;48.120;11.548;2024-02-26T12:36:37;1.10;;;1.02;;
72864;SDS011;61000;48.120;11.548;2024-02-26T12:39:05;1.40;;;1.30;;
72864;SDS011;61000;48.120;11.548;2024-02-26T12:41:34;1.95;;;1.52;;
72864;SDS011;61000;48.120;11.548;2024-02-26T12:44:01;5.07;;;1.40;;
72864;SDS011;61000;48.120;11.548;2024-02-26T12:46:28;1.40;;;1.40;;
72864;SDS011;61000;48.120;11.548;2024-02-26T12:48:56;1.45;;;1.35;;
72864;SDS011;61000;48.120;11.548;2024-02-26T12:51:24;1.50;;;1.40;;
72864;SDS011;61000;48.120;11.548;2024-02-26T12:53:53;2.38;;;1.30;;
72864;SDS011;61000;48.120;11.548;2024-02-26T12:56:21;2.25;;;1.08;;
72864;SDS011;61000;48.120;11.548;2024-02-26T12:58:49;4.18;;;1.25;;
72864;SDS011;61000;48.120;11.548;2024-02-26T13:01:18;1.33;;;1.20;;
72864;SDS011;61000;48.120;11.548;2024-02-26T13:03:49;1.40;;;1.30;;
72864;SDS011;61000;48.120;11.548;2024-02-26T13:06:17;1.58;;;1.48;;
72864;SDS011;61000;48.120;11.548;2024-02-26T13:08:44;1.90;;;1.10;;
72864;SDS011;61000;48.120;11.548;2024-02-26T13:11:13;2.35;;;1.35;;
72864;SDS011;61000;48.120;11.548;2024-02-26T13:13:40;1.70;;;1.38;;
72864;SDS011;61000;48.120;11.548;2024-02-26T13:16:07;3.85;;;1.70;;
72864;SDS011;61000;48.120;11.548;2024-02-26T13:18:36;1.58;;;1.48;;
72864;SDS011;61000;48.120;11.548;2024-02-26T13:21:09;1.98;;;1.50;;
72864;SDS011;61000;48.120;11.548;2024-02-26T13:23:37;3.65;;;1.65;;
72864;SDS011;61000;48.120;11.548;2024-02-26T13:26:04;2.03;;;1.80;;
72864;SDS011;61000;48.120;11.548;2024-02-26T13:28:33;1.70;;;1.60;;
72864;SDS011;61000;48.120;11.548;2024-02-26T13:31:01;1.88;;;1.63;;
72864;SDS011;61000;48.120;11.548;2024-02-26T13:33:29;3.83;;;1.92;;
72864;SDS011;61000;48.120;11.548;2024-02-26T13:35:57;2.08;;;1.88;;
72864;SDS011;61000;48.120;11.548;2024-02-26T13:38:25;2.00;;;1.80;;
72864;SDS011;61000;48.120;11.548;2024-02-26T13:40:53;1.60;;;1.50;;
72864;SDS011;61000;48.120;11.548;2024-02-26T13:43:21;2.05;;;1.38;;
72864;SDS011;61000;48.120;11.548;2024-02-26T13:45:49;1.67;;;1.20;;
72864;SDS011;61000;48.120;11.548;2024-02-26T13:48:16;2.28;;;1.63;;
72864;SDS011;61000;48.120;11.548;2024-02-26T13:50:43;3.30;;;2.80;;
72864;SDS011;61000;48.120;11.548;2024-02-26T13:53:11;3.35;;;1.85;;
72864;SDS011;61000;48.120;11.548;2024-02-26T13:55:39;2.58;;;1.88;;
72864;SDS011;61000;48.120;11.548;2024-02-26T13:58:07;1.95;;;1.38;;
72864;SDS011;61000;48.120;11.548;2024-02-26T14:00:35;2.78;;;1.30;;
72864;SDS011;61000;48.120;11.548;2024-02-26T14:03:03;1.63;;;1.10;;
72864;SDS011;61000;48.120;11.548;2024-02-26T14:05:30;2.80;;;1.40;;
72864;SDS011;61000;48.120;11.548;2024-02-26T14:07:57;1.40;;;1.27;;
72864;SDS011;61000;48.120;11.548;2024-02-26T14:10:24;2.42;;;1.00;;
72864;SDS011;61000;48.120;11.548;2024-02-26T14:12:51;1.15;;;1.05;;
72864;SDS011;61000;48.120;11.548;2024-02-26T14:15:18;1.27;;;1.10;;
72864;SDS011;61000;48.120;11.548;2024-02-26T14:17:45;2.35;;;1.13;;
72864;SDS011;61000;48.120;11.548;2024-02-26T14:20:19;2.78;;;1.40;;
72864;SDS011;61000;48.120;11.548;2024-02-26T14:22:46;1.33;;;1.23;;
72864;SDS011;61000;48.120;11.548;2024-02-26T14:25:14;2.05;;;1.33;;
72864;SDS011;61000;48.120;11.548;2024-02-26T14:27:41;5.90;;;1.90;;
72864;SDS011;61000;48.120;11.548;2024-02-26T14:30:08;4.25;;;3.13;;
72864;SDS011;61000;48.120;11.548;2024-02-26T14:32:35;3.50;;;1.90;;
72864;SDS011;61000;48.120;11.548;2024-02-26T14:35:03;3.38;;;1.85;;
72864;SDS011;61000;48.120;11.548;2024-02-26T14:37:33;3.05;;;2.10;;
72864;SDS011;61000;48.120;11.548;2024-02-26T14:40:00;3.50;;;2.13;;
72864;SDS011;61000;48.120;11.548;2024-02-26T14:42:27;6.80;;;2.85;;
72864;SDS011;61000;48.120;11.548;2024-02-26T14:44:54;2.38;;;2.17;;